Conroe's Hourly Summary for Monday, July 9, 2018
Hour Temp
(f)
RH
(%)
Solar Rad.
(MJ/m2)
Rainfall
(in)
Wind
(mph)
7/9/2018 12:00 AM 74 90 0 0 0.01
7/9/2018 1:00 AM 74 88 0 0 0
7/9/2018 2:00 AM 74 88 0 0 0
7/9/2018 3:00 AM 73 90 0 0 0
7/9/2018 4:00 AM 72 91 0 0 0
7/9/2018 5:00 AM 73 91 0 0 0
7/9/2018 6:00 AM 73 92 0.01 0 0
7/9/2018 7:00 AM 73 89 0.15 0 0
7/9/2018 8:00 AM 76 83 0.45 0.01 0.01
7/9/2018 9:00 AM 79 77 0.53 0 0.1
7/9/2018 10:00 AM 79 77 0.62 0 0.03
7/9/2018 11:00 AM 82 61 2.55 0 0.4
7/9/2018 12:00 PM 85 55 3.01 0 1.35
7/9/2018 1:00 PM 77 59 0.48 0 1.76
7/9/2018 2:00 PM 72 86 0.44 0 0.65
7/9/2018 3:00 PM 74 84 0.75 0 0.78
7/9/2018 4:00 PM 74 84 0.58 0 0.26
7/9/2018 5:00 PM 75 79 0.64 0 1.52
7/9/2018 6:00 PM 75 79 0.44 0 0.87
7/9/2018 7:00 PM 75 82 0.24 0 0.28
7/9/2018 8:00 PM 74 87 0.03 0 0.36
7/9/2018 9:00 PM 73 90 0 0 0
7/9/2018 10:00 PM 72 92 0 0 0
7/9/2018 11:00 PM 72 93 0 0 0.02
Data Summary 75 82 10.92 0.01 0.35